sensor_id;sensor_type;location;lat;lon;timestamp;P1;durP1;ratioP1;P2;durP2;ratioP2
40515;SDS011;26216;53.724;9.898;2023-02-15T00:01:39;26.75;;;17.52;;
40515;SDS011;26216;53.724;9.898;2023-02-15T00:04:05;24.05;;;15.65;;
40515;SDS011;26216;53.724;9.898;2023-02-15T00:06:32;23.98;;;15.57;;
40515;SDS011;26216;53.724;9.898;2023-02-15T00:08:59;23.27;;;14.57;;
40515;SDS011;26216;53.724;9.898;2023-02-15T00:11:26;21.73;;;15.10;;
40515;SDS011;26216;53.724;9.898;2023-02-15T00:14:28;21.60;;;14.38;;
40515;SDS011;26216;53.724;9.898;2023-02-15T00:16:54;23.08;;;13.55;;
40515;SDS011;26216;53.724;9.898;2023-02-15T00:19:20;23.27;;;14.18;;
40515;SDS011;26216;53.724;9.898;2023-02-15T00:21:47;18.63;;;13.65;;
40515;SDS011;26216;53.724;9.898;2023-02-15T00:24:14;20.13;;;12.98;;
40515;SDS011;26216;53.724;9.898;2023-02-15T00:26:41;18.98;;;13.85;;
40515;SDS011;26216;53.724;9.898;2023-02-15T00:29:09;19.23;;;14.27;;
40515;SDS011;26216;53.724;9.898;2023-02-15T00:31:35;19.90;;;13.30;;
40515;SDS011;26216;53.724;9.898;2023-02-15T00:34:05;19.33;;;13.35;;
40515;SDS011;26216;53.724;9.898;2023-02-15T00:36:35;18.70;;;12.65;;
40515;SDS011;26216;53.724;9.898;2023-02-15T00:39:01;18.13;;;12.68;;
40515;SDS011;26216;53.724;9.898;2023-02-15T00:41:27;19.85;;;13.75;;
40515;SDS011;26216;53.724;9.898;2023-02-15T00:43:53;21.73;;;14.00;;
40515;SDS011;26216;53.724;9.898;2023-02-15T00:46:18;20.42;;;13.15;;
40515;SDS011;26216;53.724;9.898;2023-02-15T00:48:44;19.98;;;13.88;;
40515;SDS011;26216;53.724;9.898;2023-02-15T00:51:10;24.40;;;14.27;;
40515;SDS011;26216;53.724;9.898;2023-02-15T00:53:36;20.73;;;14.15;;
40515;SDS011;26216;53.724;9.898;2023-02-15T00:56:02;20.63;;;13.80;;
40515;SDS011;26216;53.724;9.898;2023-02-15T00:58:28;23.83;;;14.10;;
40515;SDS011;26216;53.724;9.898;2023-02-15T01:00:54;21.08;;;13.88;;
40515;SDS011;26216;53.724;9.898;2023-02-15T01:03:20;20.15;;;13.88;;
40515;SDS011;26216;53.724;9.898;2023-02-15T01:05:46;19.98;;;13.95;;
40515;SDS011;26216;53.724;9.898;2023-02-15T01:08:14;18.42;;;12.63;;
40515;SDS011;26216;53.724;9.898;2023-02-15T01:10:40;22.23;;;15.30;;
40515;SDS011;26216;53.724;9.898;2023-02-15T01:13:09;24.13;;;13.23;;
40515;SDS011;26216;53.724;9.898;2023-02-15T01:15:35;21.15;;;13.38;;
40515;SDS011;26216;53.724;9.898;2023-02-15T01:18:01;20.17;;;14.32;;
40515;SDS011;26216;53.724;9.898;2023-02-15T01:20:27;19.77;;;13.68;;
40515;SDS011;26216;53.724;9.898;2023-02-15T01:22:53;17.63;;;12.50;;
40515;SDS011;26216;53.724;9.898;2023-02-15T01:25:21;19.33;;;12.73;;
40515;SDS011;26216;53.724;9.898;2023-02-15T01:27:47;19.10;;;12.65;;
40515;SDS011;26216;53.724;9.898;2023-02-15T01:30:14;24.98;;;13.95;;
40515;SDS011;26216;53.724;9.898;2023-02-15T01:32:40;24.45;;;13.63;;
40515;SDS011;26216;53.724;9.898;2023-02-15T01:35:07;18.80;;;12.85;;
40515;SDS011;26216;53.724;9.898;2023-02-15T01:37:34;17.80;;;11.43;;
40515;SDS011;26216;53.724;9.898;2023-02-15T01:40:04;19.23;;;12.65;;
40515;SDS011;26216;53.724;9.898;2023-02-15T01:42:32;20.33;;;13.73;;
40515;SDS011;26216;53.724;9.898;2023-02-15T01:44:59;17.05;;;11.35;;
40515;SDS011;26216;53.724;9.898;2023-02-15T01:50:15;18.45;;;11.90;;
40515;SDS011;26216;53.724;9.898;2023-02-15T01:53:03;18.77;;;12.50;;
40515;SDS011;26216;53.724;9.898;2023-02-15T01:55:36;17.98;;;12.00;;
40515;SDS011;26216;53.724;9.898;2023-02-15T01:58:06;23.35;;;13.60;;
40515;SDS011;26216;53.724;9.898;2023-02-15T02:00:32;20.65;;;13.73;;
40515;SDS011;26216;53.724;9.898;2023-02-15T02:02:59;18.95;;;12.30;;
40515;SDS011;26216;53.724;9.898;2023-02-15T02:05:26;19.33;;;13.25;;
40515;SDS011;26216;53.724;9.898;2023-02-15T02:07:54;18.67;;;12.45;;
40515;SDS011;26216;53.724;9.898;2023-02-15T02:10:24;17.13;;;11.52;;
40515;SDS011;26216;53.724;9.898;2023-02-15T02:12:52;17.23;;;12.20;;
40515;SDS011;26216;53.724;9.898;2023-02-15T02:15:22;19.58;;;12.48;;
40515;SDS011;26216;53.724;9.898;2023-02-15T02:18:14;20.50;;;12.43;;
40515;SDS011;26216;53.724;9.898;2023-02-15T02:21:02;18.05;;;11.93;;
40515;SDS011;26216;53.724;9.898;2023-02-15T02:31:49;21.35;;;13.55;;
40515;SDS011;26216;53.724;9.898;2023-02-15T02:37:14;23.52;;;14.32;;
40515;SDS011;26216;53.724;9.898;2023-02-15T02:40:07;20.17;;;13.38;;
40515;SDS011;26216;53.724;9.898;2023-02-15T02:42:42;23.02;;;13.27;;
40515;SDS011;26216;53.724;9.898;2023-02-15T02:45:13;25.70;;;13.95;;
40515;SDS011;26216;53.724;9.898;2023-02-15T02:47:46;21.80;;;13.82;;
40515;SDS011;26216;53.724;9.898;2023-02-15T02:52:54;16.92;;;11.77;;
40515;SDS011;26216;53.724;9.898;2023-02-15T02:57:57;20.80;;;13.55;;
40515;SDS011;26216;53.724;9.898;2023-02-15T03:00:24;22.25;;;13.52;;
40515;SDS011;26216;53.724;9.898;2023-02-15T03:02:57;21.00;;;13.77;;
40515;SDS011;26216;53.724;9.898;2023-02-15T03:05:29;19.13;;;13.40;;
40515;SDS011;26216;53.724;9.898;2023-02-15T03:07:58;19.85;;;13.32;;
40515;SDS011;26216;53.724;9.898;2023-02-15T03:10:31;20.85;;;13.25;;
40515;SDS011;26216;53.724;9.898;2023-02-15T03:12:59;20.55;;;13.45;;
40515;SDS011;26216;53.724;9.898;2023-02-15T03:15:26;21.65;;;13.95;;
40515;SDS011;26216;53.724;9.898;2023-02-15T03:18:20;21.20;;;13.70;;
40515;SDS011;26216;53.724;9.898;2023-02-15T03:20:49;22.38;;;14.15;;
40515;SDS011;26216;53.724;9.898;2023-02-15T03:23:19;19.23;;;12.80;;
40515;SDS011;26216;53.724;9.898;2023-02-15T03:25:49;17.15;;;11.75;;
40515;SDS011;26216;53.724;9.898;2023-02-15T03:28:25;18.15;;;12.02;;
40515;SDS011;26216;53.724;9.898;2023-02-15T03:31:05;18.17;;;12.07;;
40515;SDS011;26216;53.724;9.898;2023-02-15T03:33:34;19.08;;;12.65;;
40515;SDS011;26216;53.724;9.898;2023-02-15T03:36:08;20.52;;;13.00;;
40515;SDS011;26216;53.724;9.898;2023-02-15T03:41:32;20.55;;;12.35;;
40515;SDS011;26216;53.724;9.898;2023-02-15T03:44:06;20.25;;;12.82;;
40515;SDS011;26216;53.724;9.898;2023-02-15T03:46:54;23.83;;;13.07;;
40515;SDS011;26216;53.724;9.898;2023-02-15T03:49:27;31.83;;;13.18;;
40515;SDS011;26216;53.724;9.898;2023-02-15T03:52:04;19.33;;;12.63;;
40515;SDS011;26216;53.724;9.898;2023-02-15T03:54:33;20.02;;;13.45;;
40515;SDS011;26216;53.724;9.898;2023-02-15T03:57:19;21.25;;;12.40;;
40515;SDS011;26216;53.724;9.898;2023-02-15T04:00:14;20.23;;;12.57;;
40515;SDS011;26216;53.724;9.898;2023-02-15T04:03:05;20.00;;;13.00;;
40515;SDS011;26216;53.724;9.898;2023-02-15T04:05:32;18.77;;;12.48;;
40515;SDS011;26216;53.724;9.898;2023-02-15T04:07:58;18.42;;;12.60;;
40515;SDS011;26216;53.724;9.898;2023-02-15T04:10:24;23.10;;;12.80;;
40515;SDS011;26216;53.724;9.898;2023-02-15T04:13:08;18.67;;;12.65;;
40515;SDS011;26216;53.724;9.898;2023-02-15T04:15:34;18.10;;;11.82;;
40515;SDS011;26216;53.724;9.898;2023-02-15T04:18:18;20.40;;;12.57;;
40515;SDS011;26216;53.724;9.898;2023-02-15T04:20:44;19.73;;;11.82;;
40515;SDS011;26216;53.724;9.898;2023-02-15T04:23:29;18.23;;;12.25;;
40515;SDS011;26216;53.724;9.898;2023-02-15T04:26:14;24.13;;;13.68;;
40515;SDS011;26216;53.724;9.898;2023-02-15T04:28:40;18.13;;;11.88;;
40515;SDS011;26216;53.724;9.898;2023-02-15T04:31:05;23.08;;;13.05;;
40515;SDS011;26216;53.724;9.898;2023-02-15T04:33:31;17.90;;;12.50;;
40515;SDS011;26216;53.724;9.898;2023-02-15T04:35:57;18.67;;;11.98;;
40515;SDS011;26216;53.724;9.898;2023-02-15T04:38:23;26.95;;;13.32;;
40515;SDS011;26216;53.724;9.898;2023-02-15T04:40:52;16.38;;;11.25;;
40515;SDS011;26216;53.724;9.898;2023-02-15T04:43:18;19.42;;;11.57;;
40515;SDS011;26216;53.724;9.898;2023-02-15T04:45:51;18.60;;;12.27;;
40515;SDS011;26216;53.724;9.898;2023-02-15T04:48:17;18.35;;;12.27;;
40515;SDS011;26216;53.724;9.898;2023-02-15T04:50:43;18.60;;;11.40;;
40515;SDS011;26216;53.724;9.898;2023-02-15T04:53:09;16.73;;;11.00;;
40515;SDS011;26216;53.724;9.898;2023-02-15T04:55:35;21.65;;;12.43;;
40515;SDS011;26216;53.724;9.898;2023-02-15T04:58:01;17.02;;;11.43;;
40515;SDS011;26216;53.724;9.898;2023-02-15T05:00:27;20.58;;;12.75;;
40515;SDS011;26216;53.724;9.898;2023-02-15T05:02:53;18.70;;;11.57;;
40515;SDS011;26216;53.724;9.898;2023-02-15T05:05:21;22.13;;;12.10;;
40515;SDS011;26216;53.724;9.898;2023-02-15T05:07:47;19.35;;;12.07;;
40515;SDS011;26216;53.724;9.898;2023-02-15T05:10:13;21.02;;;13.27;;
40515;SDS011;26216;53.724;9.898;2023-02-15T05:12:39;19.10;;;13.07;;
40515;SDS011;26216;53.724;9.898;2023-02-15T05:15:05;18.58;;;12.60;;
40515;SDS011;26216;53.724;9.898;2023-02-15T05:17:31;23.40;;;11.93;;
40515;SDS011;26216;53.724;9.898;2023-02-15T05:19:56;17.50;;;11.80;;
40515;SDS011;26216;53.724;9.898;2023-02-15T05:22:22;19.25;;;12.52;;
40515;SDS011;26216;53.724;9.898;2023-02-15T05:24:48;18.85;;;12.70;;
40515;SDS011;26216;53.724;9.898;2023-02-15T05:27:33;18.13;;;11.57;;
40515;SDS011;26216;53.724;9.898;2023-02-15T05:30:17;21.90;;;12.48;;
40515;SDS011;26216;53.724;9.898;2023-02-15T05:32:43;20.52;;;13.18;;
40515;SDS011;26216;53.724;9.898;2023-02-15T05:35:12;19.20;;;12.70;;
40515;SDS011;26216;53.724;9.898;2023-02-15T05:37:40;18.55;;;12.23;;
40515;SDS011;26216;53.724;9.898;2023-02-15T05:40:06;19.77;;;12.27;;
40515;SDS011;26216;53.724;9.898;2023-02-15T05:42:32;20.42;;;13.15;;
40515;SDS011;26216;53.724;9.898;2023-02-15T05:44:58;19.40;;;13.20;;
40515;SDS011;26216;53.724;9.898;2023-02-15T05:47:24;21.63;;;12.63;;
40515;SDS011;26216;53.724;9.898;2023-02-15T05:49:50;20.75;;;12.75;;
40515;SDS011;26216;53.724;9.898;2023-02-15T05:52:15;19.13;;;12.27;;
40515;SDS011;26216;53.724;9.898;2023-02-15T05:54:42;19.30;;;12.02;;
40515;SDS011;26216;53.724;9.898;2023-02-15T05:57:08;18.45;;;12.02;;
40515;SDS011;26216;53.724;9.898;2023-02-15T05:59:33;16.80;;;11.02;;
40515;SDS011;26216;53.724;9.898;2023-02-15T06:01:59;16.35;;;10.77;;
40515;SDS011;26216;53.724;9.898;2023-02-15T06:04:25;15.57;;;11.15;;
40515;SDS011;26216;53.724;9.898;2023-02-15T06:06:51;16.27;;;11.02;;
40515;SDS011;26216;53.724;9.898;2023-02-15T06:09:17;15.57;;;10.90;;
40515;SDS011;26216;53.724;9.898;2023-02-15T06:11:45;15.80;;;10.43;;
40515;SDS011;26216;53.724;9.898;2023-02-15T06:14:11;14.70;;;10.52;;
40515;SDS011;26216;53.724;9.898;2023-02-15T06:16:36;14.10;;;9.85;;
40515;SDS011;26216;53.724;9.898;2023-02-15T06:19:02;18.42;;;12.07;;
40515;SDS011;26216;53.724;9.898;2023-02-15T06:21:29;18.67;;;11.48;;
40515;SDS011;26216;53.724;9.898;2023-02-15T06:23:55;15.55;;;10.70;;
40515;SDS011;26216;53.724;9.898;2023-02-15T06:26:21;17.38;;;10.43;;
40515;SDS011;26216;53.724;9.898;2023-02-15T06:28:47;14.73;;;9.98;;
40515;SDS011;26216;53.724;9.898;2023-02-15T06:31:13;16.58;;;11.35;;
40515;SDS011;26216;53.724;9.898;2023-02-15T06:33:39;14.43;;;9.98;;
40515;SDS011;26216;53.724;9.898;2023-02-15T06:36:04;16.02;;;10.13;;
40515;SDS011;26216;53.724;9.898;2023-02-15T06:38:30;16.00;;;9.73;;
40515;SDS011;26216;53.724;9.898;2023-02-15T06:40:57;15.15;;;10.30;;
40515;SDS011;26216;53.724;9.898;2023-02-15T06:43:22;12.65;;;9.13;;
40515;SDS011;26216;53.724;9.898;2023-02-15T06:45:48;13.82;;;10.02;;
40515;SDS011;26216;53.724;9.898;2023-02-15T06:48:14;14.27;;;9.75;;
40515;SDS011;26216;53.724;9.898;2023-02-15T06:50:40;14.93;;;10.40;;
40515;SDS011;26216;53.724;9.898;2023-02-15T06:53:06;15.52;;;11.10;;
40515;SDS011;26216;53.724;9.898;2023-02-15T06:55:32;16.92;;;10.95;;
40515;SDS011;26216;53.724;9.898;2023-02-15T06:57:57;22.08;;;12.15;;
40515;SDS011;26216;53.724;9.898;2023-02-15T07:00:23;16.92;;;12.35;;
40515;SDS011;26216;53.724;9.898;2023-02-15T07:02:53;16.70;;;11.55;;
40515;SDS011;26216;53.724;9.898;2023-02-15T07:05:21;15.05;;;10.00;;
40515;SDS011;26216;53.724;9.898;2023-02-15T07:07:47;18.25;;;10.60;;
40515;SDS011;26216;53.724;9.898;2023-02-15T07:10:13;16.92;;;11.25;;
40515;SDS011;26216;53.724;9.898;2023-02-15T07:12:39;16.30;;;10.77;;
40515;SDS011;26216;53.724;9.898;2023-02-15T07:15:11;16.88;;;11.38;;
40515;SDS011;26216;53.724;9.898;2023-02-15T07:17:42;16.67;;;10.95;;
40515;SDS011;26216;53.724;9.898;2023-02-15T07:20:10;17.52;;;11.60;;
40515;SDS011;26216;53.724;9.898;2023-02-15T07:25:06;16.50;;;11.85;;
40515;SDS011;26216;53.724;9.898;2023-02-15T07:27:33;17.90;;;11.38;;
40515;SDS011;26216;53.724;9.898;2023-02-15T07:30:00;22.73;;;12.45;;
40515;SDS011;26216;53.724;9.898;2023-02-15T07:32:30;20.42;;;13.00;;
40515;SDS011;26216;53.724;9.898;2023-02-15T07:34:56;18.70;;;12.13;;
40515;SDS011;26216;53.724;9.898;2023-02-15T07:37:23;14.20;;;10.00;;
40515;SDS011;26216;53.724;9.898;2023-02-15T07:39:50;17.25;;;11.57;;
40515;SDS011;26216;53.724;9.898;2023-02-15T07:42:15;17.98;;;11.27;;
40515;SDS011;26216;53.724;9.898;2023-02-15T07:44:43;16.98;;;10.82;;
40515;SDS011;26216;53.724;9.898;2023-02-15T07:47:08;18.58;;;11.82;;
40515;SDS011;26216;53.724;9.898;2023-02-15T07:49:34;16.92;;;10.93;;
40515;SDS011;26216;53.724;9.898;2023-02-15T07:52:00;20.00;;;12.10;;
40515;SDS011;26216;53.724;9.898;2023-02-15T07:54:27;18.63;;;12.27;;
40515;SDS011;26216;53.724;9.898;2023-02-15T07:56:53;21.75;;;12.38;;
40515;SDS011;26216;53.724;9.898;2023-02-15T07:59:19;16.33;;;11.27;;
40515;SDS011;26216;53.724;9.898;2023-02-15T08:01:44;20.85;;;12.18;;
40515;SDS011;26216;53.724;9.898;2023-02-15T08:04:10;17.60;;;11.40;;
40515;SDS011;26216;53.724;9.898;2023-02-15T08:06:37;16.95;;;11.23;;
40515;SDS011;26216;53.724;9.898;2023-02-15T08:09:04;16.30;;;11.57;;
40515;SDS011;26216;53.724;9.898;2023-02-15T08:11:33;15.45;;;11.15;;
40515;SDS011;26216;53.724;9.898;2023-02-15T08:16:45;22.17;;;12.82;;
40515;SDS011;26216;53.724;9.898;2023-02-15T08:19:14;18.55;;;12.35;;
40515;SDS011;26216;53.724;9.898;2023-02-15T08:21:43;15.98;;;11.77;;
40515;SDS011;26216;53.724;9.898;2023-02-15T08:24:13;17.08;;;12.07;;
40515;SDS011;26216;53.724;9.898;2023-02-15T08:26:40;16.92;;;12.57;;
40515;SDS011;26216;53.724;9.898;2023-02-15T08:29:07;22.85;;;13.00;;
40515;SDS011;26216;53.724;9.898;2023-02-15T08:31:33;16.90;;;12.25;;
40515;SDS011;26216;53.724;9.898;2023-02-15T08:34:00;22.05;;;13.05;;
40515;SDS011;26216;53.724;9.898;2023-02-15T08:36:27;26.45;;;15.13;;
40515;SDS011;26216;53.724;9.898;2023-02-15T08:38:55;22.65;;;14.32;;
40515;SDS011;26216;53.724;9.898;2023-02-15T08:41:24;21.50;;;14.77;;
40515;SDS011;26216;53.724;9.898;2023-02-15T08:43:52;21.10;;;13.70;;
40515;SDS011;26216;53.724;9.898;2023-02-15T08:46:19;19.20;;;13.10;;
40515;SDS011;26216;53.724;9.898;2023-02-15T08:48:47;21.30;;;14.05;;
40515;SDS011;26216;53.724;9.898;2023-02-15T08:51:17;20.52;;;13.27;;
40515;SDS011;26216;53.724;9.898;2023-02-15T08:53:45;21.52;;;13.48;;
40515;SDS011;26216;53.724;9.898;2023-02-15T08:56:15;18.08;;;13.07;;
40515;SDS011;26216;53.724;9.898;2023-02-15T08:58:43;19.20;;;13.60;;
40515;SDS011;26216;53.724;9.898;2023-02-15T09:01:15;21.33;;;13.75;;
40515;SDS011;26216;53.724;9.898;2023-02-15T09:03:43;23.58;;;14.70;;
40515;SDS011;26216;53.724;9.898;2023-02-15T09:06:10;19.65;;;13.48;;
40515;SDS011;26216;53.724;9.898;2023-02-15T09:08:37;23.27;;;14.82;;
40515;SDS011;26216;53.724;9.898;2023-02-15T09:11:10;21.83;;;12.85;;
40515;SDS011;26216;53.724;9.898;2023-02-15T09:13:39;20.50;;;13.23;;
40515;SDS011;26216;53.724;9.898;2023-02-15T09:16:06;20.05;;;12.73;;
40515;SDS011;26216;53.724;9.898;2023-02-15T09:18:34;21.17;;;14.02;;
40515;SDS011;26216;53.724;9.898;2023-02-15T09:21:09;20.42;;;13.75;;
40515;SDS011;26216;53.724;9.898;2023-02-15T09:23:38;21.83;;;13.68;;
40515;SDS011;26216;53.724;9.898;2023-02-15T09:26:12;20.67;;;14.23;;
40515;SDS011;26216;53.724;9.898;2023-02-15T09:31:12;21.38;;;13.75;;
40515;SDS011;26216;53.724;9.898;2023-02-15T09:33:40;23.92;;;14.63;;
40515;SDS011;26216;53.724;9.898;2023-02-15T09:36:15;24.60;;;15.27;;
40515;SDS011;26216;53.724;9.898;2023-02-15T09:38:42;24.55;;;16.38;;
40515;SDS011;26216;53.724;9.898;2023-02-15T09:49:22;24.42;;;15.60;;
40515;SDS011;26216;53.724;9.898;2023-02-15T09:54:56;25.92;;;17.33;;
40515;SDS011;26216;53.724;9.898;2023-02-15T09:57:47;24.90;;;16.33;;
40515;SDS011;26216;53.724;9.898;2023-02-15T10:01:03;23.95;;;16.23;;
40515;SDS011;26216;53.724;9.898;2023-02-15T10:06:12;25.35;;;16.73;;
40515;SDS011;26216;53.724;9.898;2023-02-15T10:08:57;26.33;;;17.73;;
40515;SDS011;26216;53.724;9.898;2023-02-15T10:11:33;27.80;;;17.92;;
40515;SDS011;26216;53.724;9.898;2023-02-15T10:19:20;31.30;;;19.20;;
40515;SDS011;26216;53.724;9.898;2023-02-15T10:22:12;27.92;;;18.58;;
40515;SDS011;26216;53.724;9.898;2023-02-15T10:24:55;27.25;;;18.50;;
40515;SDS011;26216;53.724;9.898;2023-02-15T10:27:39;30.40;;;19.83;;
40515;SDS011;26216;53.724;9.898;2023-02-15T10:30:13;26.63;;;18.60;;
40515;SDS011;26216;53.724;9.898;2023-02-15T10:35:42;34.00;;;21.80;;
40515;SDS011;26216;53.724;9.898;2023-02-15T10:53:00;29.00;;;19.13;;
40515;SDS011;26216;53.724;9.898;2023-02-15T10:55:45;28.70;;;20.63;;
40515;SDS011;26216;53.724;9.898;2023-02-15T11:00:50;28.60;;;19.83;;
40515;SDS011;26216;53.724;9.898;2023-02-15T11:06:34;28.65;;;19.58;;
40515;SDS011;26216;53.724;9.898;2023-02-15T11:09:05;28.58;;;20.05;;
40515;SDS011;26216;53.724;9.898;2023-02-15T11:11:38;30.52;;;20.65;;
40515;SDS011;26216;53.724;9.898;2023-02-15T11:14:51;28.38;;;19.63;;
40515;SDS011;26216;53.724;9.898;2023-02-15T11:17:04;27.35;;;18.73;;
40515;SDS011;26216;53.724;9.898;2023-02-15T11:19:35;31.08;;;20.48;;
40515;SDS011;26216;53.724;9.898;2023-02-15T11:22:28;34.25;;;22.55;;
40515;SDS011;26216;53.724;9.898;2023-02-15T11:24:57;31.77;;;21.80;;
40515;SDS011;26216;53.724;9.898;2023-02-15T11:27:29;32.97;;;21.88;;
40515;SDS011;26216;53.724;9.898;2023-02-15T11:29:59;31.80;;;21.65;;
40515;SDS011;26216;53.724;9.898;2023-02-15T11:37:48;35.50;;;23.83;;
40515;SDS011;26216;53.724;9.898;2023-02-15T11:40:26;34.47;;;24.65;;
40515;SDS011;26216;53.724;9.898;2023-02-15T11:42:56;33.28;;;22.42;;
40515;SDS011;26216;53.724;9.898;2023-02-15T11:45:31;37.75;;;26.10;;
40515;SDS011;26216;53.724;9.898;2023-02-15T11:47:59;34.92;;;23.92;;
40515;SDS011;26216;53.724;9.898;2023-02-15T11:50:33;39.05;;;25.45;;
40515;SDS011;26216;53.724;9.898;2023-02-15T11:53:02;37.45;;;24.67;;
40515;SDS011;26216;53.724;9.898;2023-02-15T11:55:41;38.22;;;25.42;;
40515;SDS011;26216;53.724;9.898;2023-02-15T11:58:17;43.90;;;27.88;;
40515;SDS011;26216;53.724;9.898;2023-02-15T12:03:50;38.63;;;24.40;;
40515;SDS011;26216;53.724;9.898;2023-02-15T12:06:26;38.05;;;25.08;;
40515;SDS011;26216;53.724;9.898;2023-02-15T12:11:52;36.42;;;23.65;;
40515;SDS011;26216;53.724;9.898;2023-02-15T12:14:18;39.88;;;26.10;;
40515;SDS011;26216;53.724;9.898;2023-02-15T12:16:49;38.67;;;25.35;;
40515;SDS011;26216;53.724;9.898;2023-02-15T12:19:28;39.22;;;25.23;;
40515;SDS011;26216;53.724;9.898;2023-02-15T12:22:03;43.00;;;28.58;;
40515;SDS011;26216;53.724;9.898;2023-02-15T12:24:32;41.38;;;27.25;;
40515;SDS011;26216;53.724;9.898;2023-02-15T12:29:35;40.50;;;26.50;;
40515;SDS011;26216;53.724;9.898;2023-02-15T12:32:05;39.78;;;26.27;;
40515;SDS011;26216;53.724;9.898;2023-02-15T12:34:36;42.38;;;27.60;;
40515;SDS011;26216;53.724;9.898;2023-02-15T12:37:10;37.28;;;25.30;;
40515;SDS011;26216;53.724;9.898;2023-02-15T12:39:55;40.65;;;26.25;;
40515;SDS011;26216;53.724;9.898;2023-02-15T12:42:23;37.33;;;26.33;;
40515;SDS011;26216;53.724;9.898;2023-02-15T12:47:30;44.05;;;29.55;;
40515;SDS011;26216;53.724;9.898;2023-02-15T12:50:13;43.70;;;29.63;;
40515;SDS011;26216;53.724;9.898;2023-02-15T12:52:48;47.42;;;32.00;;
40515;SDS011;26216;53.724;9.898;2023-02-15T12:55:23;42.30;;;29.45;;
40515;SDS011;26216;53.724;9.898;2023-02-15T12:58:33;39.25;;;28.48;;
40515;SDS011;26216;53.724;9.898;2023-02-15T13:00:44;38.55;;;26.75;;
40515;SDS011;26216;53.724;9.898;2023-02-15T13:03:20;39.35;;;27.52;;
40515;SDS011;26216;53.724;9.898;2023-02-15T13:05:52;40.28;;;28.05;;
40515;SDS011;26216;53.724;9.898;2023-02-15T13:10:54;36.40;;;26.02;;
40515;SDS011;26216;53.724;9.898;2023-02-15T13:13:31;37.63;;;26.90;;
40515;SDS011;26216;53.724;9.898;2023-02-15T13:16:01;45.65;;;31.10;;
40515;SDS011;26216;53.724;9.898;2023-02-15T13:18:38;44.20;;;31.42;;
40515;SDS011;26216;53.724;9.898;2023-02-15T13:23:36;37.95;;;27.27;;
40515;SDS011;26216;53.724;9.898;2023-02-15T13:26:08;41.70;;;28.98;;
40515;SDS011;26216;53.724;9.898;2023-02-15T13:28:41;37.55;;;26.98;;
40515;SDS011;26216;53.724;9.898;2023-02-15T13:31:15;39.83;;;28.40;;
40515;SDS011;26216;53.724;9.898;2023-02-15T13:33:46;41.08;;;27.38;;
40515;SDS011;26216;53.724;9.898;2023-02-15T13:36:20;36.38;;;25.55;;
40515;SDS011;26216;53.724;9.898;2023-02-15T13:39:12;32.03;;;24.05;;
40515;SDS011;26216;53.724;9.898;2023-02-15T13:47:20;39.50;;;28.80;;
40515;SDS011;26216;53.724;9.898;2023-02-15T13:50:03;38.20;;;26.90;;
40515;SDS011;26216;53.724;9.898;2023-02-15T13:52:56;32.10;;;23.95;;
40515;SDS011;26216;53.724;9.898;2023-02-15T13:56:19;31.25;;;23.52;;
40515;SDS011;26216;53.724;9.898;2023-02-15T14:06:46;35.78;;;26.70;;
40515;SDS011;26216;53.724;9.898;2023-02-15T14:09:40;36.92;;;28.38;;
40515;SDS011;26216;53.724;9.898;2023-02-15T14:14:56;33.25;;;25.77;;
40515;SDS011;26216;53.724;9.898;2023-02-15T14:26:45;28.25;;;22.30;;
40515;SDS011;26216;53.724;9.898;2023-02-15T14:32:13;29.08;;;21.95;;
40515;SDS011;26216;53.724;9.898;2023-02-15T14:37:33;36.63;;;26.70;;
40515;SDS011;26216;53.724;9.898;2023-02-15T14:40:26;34.83;;;27.13;;
40515;SDS011;26216;53.724;9.898;2023-02-15T14:43:34;31.08;;;23.15;;
40515;SDS011;26216;53.724;9.898;2023-02-15T14:48:52;29.00;;;21.63;;
40515;SDS011;26216;53.724;9.898;2023-02-15T14:54:52;28.48;;;21.52;;
40515;SDS011;26216;53.724;9.898;2023-02-15T14:59:25;28.15;;;21.63;;
40515;SDS011;26216;53.724;9.898;2023-02-15T15:07:24;30.47;;;22.50;;
40515;SDS011;26216;53.724;9.898;2023-02-15T15:12:55;26.20;;;19.70;;
40515;SDS011;26216;53.724;9.898;2023-02-15T15:18:01;23.77;;;20.35;;
40515;SDS011;26216;53.724;9.898;2023-02-15T15:34:25;26.10;;;20.27;;
40515;SDS011;26216;53.724;9.898;2023-02-15T15:43:19;23.80;;;19.27;;
40515;SDS011;26216;53.724;9.898;2023-02-15T15:46:37;25.35;;;19.42;;
40515;SDS011;26216;53.724;9.898;2023-02-15T15:49:10;24.58;;;19.10;;
40515;SDS011;26216;53.724;9.898;2023-02-15T15:51:41;25.05;;;19.17;;
40515;SDS011;26216;53.724;9.898;2023-02-15T15:54:15;26.05;;;20.58;;
40515;SDS011;26216;53.724;9.898;2023-02-15T15:57:05;23.13;;;18.83;;
40515;SDS011;26216;53.724;9.898;2023-02-15T15:59:47;23.52;;;18.20;;
40515;SDS011;26216;53.724;9.898;2023-02-15T16:02:15;24.15;;;19.38;;
40515;SDS011;26216;53.724;9.898;2023-02-15T16:04:42;26.25;;;19.55;;
40515;SDS011;26216;53.724;9.898;2023-02-15T16:07:27;24.30;;;19.65;;
40515;SDS011;26216;53.724;9.898;2023-02-15T16:12:21;25.13;;;20.23;;
40515;SDS011;26216;53.724;9.898;2023-02-15T16:14:48;23.77;;;19.25;;
40515;SDS011;26216;53.724;9.898;2023-02-15T16:17:22;25.05;;;19.67;;
40515;SDS011;26216;53.724;9.898;2023-02-15T16:19:50;24.88;;;19.83;;
40515;SDS011;26216;53.724;9.898;2023-02-15T16:22:19;23.33;;;18.88;;
40515;SDS011;26216;53.724;9.898;2023-02-15T16:27:36;31.65;;;22.13;;
40515;SDS011;26216;53.724;9.898;2023-02-15T16:30:22;28.65;;;21.88;;
40515;SDS011;26216;53.724;9.898;2023-02-15T16:32:48;27.65;;;22.02;;
40515;SDS011;26216;53.724;9.898;2023-02-15T16:35:19;28.35;;;21.35;;
40515;SDS011;26216;53.724;9.898;2023-02-15T16:37:46;29.77;;;23.02;;
40515;SDS011;26216;53.724;9.898;2023-02-15T16:40:25;30.80;;;22.85;;
40515;SDS011;26216;53.724;9.898;2023-02-15T16:43:00;27.58;;;20.95;;
40515;SDS011;26216;53.724;9.898;2023-02-15T16:45:28;27.88;;;21.27;;
40515;SDS011;26216;53.724;9.898;2023-02-15T16:47:57;23.98;;;17.73;;
40515;SDS011;26216;53.724;9.898;2023-02-15T16:50:29;22.83;;;18.45;;
40515;SDS011;26216;53.724;9.898;2023-02-15T16:52:58;25.00;;;19.70;;
40515;SDS011;26216;53.724;9.898;2023-02-15T16:55:26;24.83;;;18.95;;
40515;SDS011;26216;53.724;9.898;2023-02-15T16:57:59;24.58;;;18.58;;
40515;SDS011;26216;53.724;9.898;2023-02-15T17:00:30;25.52;;;19.48;;
40515;SDS011;26216;53.724;9.898;2023-02-15T17:03:00;24.13;;;18.27;;
40515;SDS011;26216;53.724;9.898;2023-02-15T17:05:33;26.27;;;19.13;;
40515;SDS011;26216;53.724;9.898;2023-02-15T17:08:17;24.15;;;18.05;;
40515;SDS011;26216;53.724;9.898;2023-02-15T17:11:11;22.17;;;17.65;;
40515;SDS011;26216;53.724;9.898;2023-02-15T17:16:43;22.40;;;17.33;;
40515;SDS011;26216;53.724;9.898;2023-02-15T17:19:21;21.95;;;16.42;;
40515;SDS011;26216;53.724;9.898;2023-02-15T17:21:55;20.92;;;15.68;;
40515;SDS011;26216;53.724;9.898;2023-02-15T17:24:33;21.02;;;15.43;;
40515;SDS011;26216;53.724;9.898;2023-02-15T17:29:57;18.05;;;14.48;;
40515;SDS011;26216;53.724;9.898;2023-02-15T17:32:29;19.38;;;14.55;;
40515;SDS011;26216;53.724;9.898;2023-02-15T17:34:58;19.75;;;14.88;;
40515;SDS011;26216;53.724;9.898;2023-02-15T17:40:35;19.98;;;15.00;;
40515;SDS011;26216;53.724;9.898;2023-02-15T17:42:55;19.00;;;14.63;;
40515;SDS011;26216;53.724;9.898;2023-02-15T17:45:22;18.73;;;14.13;;